Time;durP1;ratioP1;P1;durP2;ratioP2;P2;SDS_P1;SDS_P2;PMS_P1;PMS_P2;Temp;Humidity;BMP_temperature;BMP_pressure;BME280_temperature;BME280_humidity;BME280_pressure;Samples;Min_cycle;Max_cycle;Signal;HPM_P1;HPM_P2
2024/02/14 00:00:03;;;;;;;1.70;0.30;;;;;;;6.05;80.20;101327.56;5047384;28;20029;-69
2024/02/14 00:02:28;;;;;;;1.40;0.20;;;;;;;6.05;81.47;101332.75;5046500;28;20363;-69
2024/02/14 00:04:54;;;;;;;0.52;0.20;;;;;;;6.15;79.03;101334.66;5047992;28;20082;-69
2024/02/14 00:07:20;;;;;;;0.75;0.20;;;;;;;6.19;79.73;101330.13;5047333;28;20067;-69
2024/02/14 00:09:46;;;;;;;0.65;0.10;;;;;;;6.15;80.03;101339.81;5042568;28;20079;-69
2024/02/14 00:12:12;;;;;;;0.70;0.15;;;;;;;6.07;79.48;101336.91;5045217;28;20032;-69
2024/02/14 00:14:38;;;;;;;0.88;0.20;;;;;;;5.98;79.23;101329.69;5044803;28;20037;-69
2024/02/14 00:17:05;;;;;;;1.23;0.20;;;;;;;5.90;79.92;101334.50;5049577;28;20434;-69
2024/02/14 00:19:31;;;;;;;0.95;0.20;;;;;;;5.85;80.62;101336.50;5043370;28;20414;-69
2024/02/14 00:21:57;;;;;;;2.50;0.20;;;;;;;5.80;81.37;101335.94;5049510;28;20036;-69
2024/02/14 00:24:23;;;;;;;0.95;0.20;;;;;;;5.72;82.19;101333.81;5045887;28;20432;-69
2024/02/14 00:26:50;;;;;;;0.68;0.20;;;;;;;5.70;81.66;101327.91;5048313;28;20064;-69
2024/02/14 00:29:15;;;;;;;0.70;0.30;;;;;;;5.76;82.19;101342.22;5046684;28;20033;-69
2024/02/14 00:31:42;;;;;;;0.50;0.20;;;;;;;5.79;81.33;101342.88;5043017;28;20162;-69
2024/02/14 00:34:08;;;;;;;0.88;0.20;;;;;;;5.83;79.86;101346.13;5045171;28;20110;-69
2024/02/14 00:36:33;;;;;;;0.75;0.15;;;;;;;5.86;80.48;101348.50;5046925;28;20029;-69
2024/02/14 00:38:59;;;;;;;1.90;0.20;;;;;;;5.82;80.48;101349.63;5047029;28;20107;-69
2024/02/14 00:41:28;;;;;;;1.35;0.13;;;;;;;5.89;79.62;101348.38;5045692;28;20025;-69
2024/02/14 00:43:54;;;;;;;9.15;0.35;;;;;;;5.85;79.80;101350.28;5046728;28;20601;-69
2024/02/14 00:46:19;;;;;;;2.47;0.10;;;;;;;5.87;80.47;101356.19;5048684;28;20059;-69
2024/02/14 00:48:45;;;;;;;1.58;0.20;;;;;;;5.80;79.13;101356.63;5043461;28;20116;-69
2024/02/14 00:51:11;;;;;;;0.85;0.20;;;;;;;5.73;79.65;101358.75;5046290;28;20032;-69
2024/02/14 00:53:36;;;;;;;0.60;0.25;;;;;;;5.71;79.67;101357.19;5048420;28;20051;-69
2024/02/14 00:56:02;;;;;;;3.35;0.20;;;;;;;5.61;79.01;101362.94;5046550;28;20037;-69
2024/02/14 00:58:28;;;;;;;0.55;0.10;;;;;;;5.60;78.87;101360.44;5045611;28;20127;-69
2024/02/14 01:00:53;;;;;;;0.63;0.20;;;;;;;5.59;80.33;101362.19;5045491;28;20074;-69
2024/02/14 01:03:18;;;;;;;1.10;0.30;;;;;;;5.59;79.98;101366.53;5046229;28;20355;-69
2024/02/14 01:05:45;;;;;;;1.42;0.20;;;;;;;5.65;79.95;101366.16;5043882;28;20500;-69
2024/02/14 01:08:10;;;;;;;4.70;0.30;;;;;;;5.65;79.51;101368.75;5044874;28;20516;-69
2024/02/14 01:10:36;;;;;;;2.17;0.10;;;;;;;5.60;80.31;101374.19;5045691;28;20029;-69
2024/02/14 01:13:01;;;;;;;1.98;0.20;;;;;;;5.57;80.60;101368.38;5045236;28;20032;-69
2024/02/14 01:15:27;;;;;;;0.40;0.20;;;;;;;5.58;78.04;101372.63;5050203;28;20037;-69
2024/02/14 01:17:52;;;;;;;0.95;0.20;;;;;;;5.52;78.60;101386.72;5046624;28;20041;-69
2024/02/14 01:20:18;;;;;;;3.53;0.20;;;;;;;5.67;78.57;101370.28;5047363;28;20029;-69
2024/02/14 01:22:44;;;;;;;0.45;0.10;;;;;;;5.61;78.39;101373.28;5044931;28;20045;-69
2024/02/14 01:25:10;;;;;;;0.80;0.20;;;;;;;5.74;76.57;101369.94;5048829;28;20448;-69
2024/02/14 01:27:36;;;;;;;4.82;0.13;;;;;;;5.87;76.07;101365.69;5046346;28;20033;-69
2024/02/14 01:30:02;;;;;;;1.40;0.20;;;;;;;5.84;73.95;101363.28;5050806;28;20104;-69
2024/02/14 01:32:29;;;;;;;0.75;0.10;;;;;;;5.83;76.17;101364.22;5046969;28;20025;-69
2024/02/14 01:34:55;;;;;;;1.88;0.15;;;;;;;5.82;76.32;101358.22;5048919;28;20067;-69
2024/02/14 01:37:20;;;;;;;1.92;0.10;;;;;;;5.88;75.73;101362.19;5049831;28;20036;-69
2024/02/14 01:39:46;;;;;;;1.50;0.10;;;;;;;5.86;76.22;101366.63;5049462;28;20040;-69
2024/02/14 01:42:11;;;;;;;0.50;0.10;;;;;;;5.78;75.84;101361.06;5048470;28;20029;-69
2024/02/14 01:44:37;;;;;;;0.50;0.10;;;;;;;5.71;77.61;101364.94;5048873;28;20078;-69
2024/02/14 01:47:03;;;;;;;0.28;0.08;;;;;;;5.61;77.64;101365.50;5049716;28;20037;-69
2024/02/14 01:49:29;;;;;;;1.83;0.28;;;;;;;5.57;76.62;101368.38;5055018;28;20051;-69
2024/02/14 01:51:58;;;;;;;2.35;0.20;;;;;;;5.50;76.77;101372.22;5050997;28;20033;-69
2024/02/14 01:54:24;;;;;;;1.45;0.20;;;;;;;5.42;78.06;101370.09;5048541;28;20032;-69
2024/02/14 01:56:50;;;;;;;0.50;0.10;;;;;;;5.36;79.33;101370.44;5049480;28;20039;-69
2024/02/14 01:59:18;;;;;;;1.05;0.28;;;;;;;5.29;79.74;101376.88;5050125;28;20111;-69
2024/02/14 02:01:44;;;;;;;3.17;0.32;;;;;;;5.20;78.14;101370.50;5047676;28;20084;-69
2024/02/14 02:04:10;;;;;;;1.70;0.25;;;;;;;5.15;80.04;101372.53;5050160;28;20032;-69
2024/02/14 02:06:36;;;;;;;0.70;0.10;;;;;;;5.17;80.07;101369.88;5048151;28;20044;-69
2024/02/14 02:09:01;;;;;;;1.20;0.20;;;;;;;5.17;80.08;101373.28;5048924;28;20033;-69
2024/02/14 02:11:27;;;;;;;1.85;0.20;;;;;;;5.21;77.52;101377.31;5049238;28;20048;-69
2024/02/14 02:13:52;;;;;;;1.50;0.10;;;;;;;5.24;77.83;101378.91;5049660;28;20036;-69
2024/02/14 02:16:19;;;;;;;0.57;0.13;;;;;;;5.20;78.28;101373.06;5048300;28;20076;-69
2024/02/14 02:18:45;;;;;;;0.57;0.10;;;;;;;5.25;77.27;101383.16;5048248;28;20095;-69
2024/02/14 02:21:12;;;;;;;2.22;0.30;;;;;;;5.29;77.23;101377.72;5045284;28;20124;-69
2024/02/14 02:23:40;;;;;;;1.17;0.15;;;;;;;5.25;77.55;101373.66;5045533;28;20389;-69
2024/02/14 02:26:06;;;;;;;2.60;0.20;;;;;;;5.18;79.28;101380.09;5050631;28;20068;-69
2024/02/14 02:28:31;;;;;;;0.75;0.10;;;;;;;5.17;79.23;101375.84;5049299;28;20151;-69
2024/02/14 02:30:57;;;;;;;0.93;0.40;;;;;;;5.21;78.44;101385.06;5050046;28;20033;-69
2024/02/14 02:33:22;;;;;;;1.77;0.17;;;;;;;5.33;77.23;101380.97;5050060;28;20029;-69
2024/02/14 02:35:49;;;;;;;0.65;0.10;;;;;;;5.26;76.88;101385.66;5047053;28;20132;-69
2024/02/14 02:38:15;;;;;;;2.03;0.10;;;;;;;5.28;77.60;101385.56;5049030;28;20039;-69
2024/02/14 02:40:41;;;;;;;0.80;0.20;;;;;;;5.34;77.11;101387.78;5050764;28;20063;-69
2024/02/14 02:43:06;;;;;;;3.70;0.10;;;;;;;5.32;76.05;101380.13;5051099;28;20036;-69
2024/02/14 02:45:32;;;;;;;0.35;0.10;;;;;;;5.28;75.48;101382.97;5048063;28;20125;-69
2024/02/14 02:47:57;;;;;;;5.70;0.20;;;;;;;5.25;76.03;101390.91;5052188;28;20121;-69
2024/02/14 02:50:23;;;;;;;1.58;0.22;;;;;;;5.29;77.53;101389.81;5052328;28;20029;-69
2024/02/14 02:52:48;;;;;;;0.65;0.15;;;;;;;5.24;76.93;101387.47;5046241;28;20082;-69
2024/02/14 02:55:17;;;;;;;1.85;0.20;;;;;;;5.17;77.22;101396.53;5054837;28;20028;-69
2024/02/14 02:57:43;;;;;;;1.17;0.25;;;;;;;5.07;78.63;101394.56;5052311;28;20633;-69
2024/02/14 03:00:11;;;;;;;2.00;0.25;;;;;;;4.97;78.77;101405.38;5050357;28;20398;-69
2024/02/14 03:02:41;;;;;;;0.70;0.43;;;;;;;4.89;80.08;101402.41;5048739;28;20037;-69
2024/02/14 03:05:10;;;;;;;1.13;0.10;;;;;;;4.82;79.95;101403.66;5048389;28;20139;-69
2024/02/14 03:07:35;;;;;;;3.15;0.20;;;;;;;4.80;80.26;101408.06;5048167;28;20657;-69
2024/02/14 03:10:03;;;;;;;4.05;0.30;;;;;;;4.78;80.40;101394.41;5048598;28;20131;-69
2024/02/14 03:12:30;;;;;;;6.47;0.30;;;;;;;4.74;79.37;101400.66;5047548;28;20055;-69
2024/02/14 03:14:58;;;;;;;0.75;0.15;;;;;;;4.71;80.18;101407.75;5050851;28;20060;-69
2024/02/14 03:17:23;;;;;;;3.20;0.20;;;;;;;4.73;81.67;101403.31;5044019;28;20029;-68
2024/02/14 03:19:51;;;;;;;0.65;0.20;;;;;;;4.70;80.76;101401.78;5048932;28;20055;-69
2024/02/14 03:22:18;;;;;;;1.20;0.30;;;;;;;4.64;81.57;101402.09;5050137;28;20554;-68
2024/02/14 03:24:46;;;;;;;0.95;0.20;;;;;;;4.58;81.35;101412.75;5044805;28;20033;-68
2024/02/14 03:27:11;;;;;;;2.72;0.20;;;;;;;4.55;81.92;101410.34;5051158;28;20032;-69
2024/02/14 03:29:38;;;;;;;0.77;0.20;;;;;;;4.43;81.83;101414.41;5049996;28;20097;-69
2024/02/14 03:32:05;;;;;;;3.65;0.47;;;;;;;4.32;82.44;101417.56;5049248;28;20417;-69
2024/02/14 03:34:33;;;;;;;2.15;0.20;;;;;;;4.24;83.49;101430.06;5046113;28;20123;-68
2024/02/14 03:36:59;;;;;;;0.98;0.22;;;;;;;4.21;83.86;101426.78;5054075;28;20021;-68
2024/02/14 03:39:24;;;;;;;1.15;0.20;;;;;;;4.18;83.86;101426.97;5046522;28;20504;-68
2024/02/14 03:41:50;;;;;;;0.90;0.28;;;;;;;4.22;83.50;101421.56;5048949;28;20037;-68
2024/02/14 03:44:15;;;;;;;2.03;0.25;;;;;;;4.35;82.51;101432.03;5052074;28;20061;-68
2024/02/14 03:46:40;;;;;;;1.15;0.10;;;;;;;4.50;81.11;101425.25;5047897;28;20032;-68
2024/02/14 03:49:06;;;;;;;0.98;0.20;;;;;;;4.56;80.49;101424.91;5047522;28;20021;-68
2024/02/14 03:51:31;;;;;;;0.60;0.20;;;;;;;4.53;80.11;101430.25;5048151;28;20055;-68
2024/02/14 03:53:57;;;;;;;0.50;0.20;;;;;;;4.59;79.65;101425.59;5042505;28;20029;-69
2024/02/14 03:56:23;;;;;;;1.17;0.20;;;;;;;4.59;80.08;101430.75;5047698;28;20025;-69
2024/02/14 03:58:48;;;;;;;0.50;0.05;;;;;;;4.69;80.24;101433.66;5041327;28;20037;-68
2024/02/14 04:01:15;;;;;;;0.65;0.10;;;;;;;4.92;77.84;101443.56;5041164;28;20036;-68
2024/02/14 04:03:40;;;;;;;0.75;0.10;;;;;;;4.96;77.19;101444.22;5042553;28;20116;-68
2024/02/14 04:06:06;;;;;;;0.70;0.10;;;;;;;4.92;77.23;101442.72;5046669;28;20140;-68
2024/02/14 04:08:33;;;;;;;0.57;0.20;;;;;;;4.84;78.20;101440.56;5048824;28;20482;-68
2024/02/14 04:10:59;;;;;;;0.55;0.10;;;;;;;4.73;77.73;101445.47;5045984;28;20086;-69
2024/02/14 04:13:24;;;;;;;1.23;0.10;;;;;;;4.65;78.76;101451.06;5050011;28;20032;-69
2024/02/14 04:15:49;;;;;;;0.90;0.20;;;;;;;4.61;79.40;101453.88;5049592;28;20025;-69
2024/02/14 04:18:17;;;;;;;0.75;0.20;;;;;;;4.54;79.46;101452.56;5044023;28;20037;-68
2024/02/14 04:20:43;;;;;;;1.10;0.10;;;;;;;4.49;80.00;101457.94;5049634;28;20363;-69
2024/02/14 04:23:09;;;;;;;5.20;0.10;;;;;;;4.51;79.99;101461.28;5043883;28;20079;-68
2024/02/14 04:25:36;;;;;;;1.17;0.17;;;;;;;4.58;78.55;101460.06;5046046;28;20033;-69
2024/02/14 04:28:03;;;;;;;1.77;0.20;;;;;;;4.61;77.79;101459.06;5042900;28;20033;-69
2024/02/14 04:30:28;;;;;;;2.50;0.30;;;;;;;4.61;79.43;101459.06;5044922;28;20029;-69
2024/02/14 04:32:53;;;;;;;1.10;0.15;;;;;;;4.54;79.84;101455.13;5045490;28;20040;-68
2024/02/14 04:35:22;;;;;;;2.17;0.10;;;;;;;4.48;79.44;101468.34;5048495;28;20098;-68
2024/02/14 04:37:49;;;;;;;0.40;0.20;;;;;;;4.43;79.63;101466.00;5048608;28;20071;-68
2024/02/14 04:40:15;;;;;;;0.40;0.10;;;;;;;4.40;80.68;101467.91;5048967;28;20482;-68
2024/02/14 04:42:41;;;;;;;1.88;0.13;;;;;;;4.41;79.84;101467.00;5048157;28;20040;-69
2024/02/14 04:45:08;;;;;;;0.75;0.20;;;;;;;4.44;79.79;101470.25;5051102;28;20029;-69
2024/02/14 04:47:33;;;;;;;0.57;0.20;;;;;;;4.39;80.58;101471.41;5042822;28;20048;-68
2024/02/14 04:49:59;;;;;;;1.65;0.30;;;;;;;4.26;80.95;101466.06;5046428;28;20013;-68
2024/02/14 04:52:25;;;;;;;0.93;0.15;;;;;;;4.25;81.05;101470.38;5047266;28;20474;-68
2024/02/14 04:54:51;;;;;;;2.95;0.20;;;;;;;4.23;81.15;101466.25;5048556;28;20065;-68
2024/02/14 04:57:18;;;;;;;1.55;0.13;;;;;;;4.15;81.30;101471.78;5047715;28;20498;-68
2024/02/14 04:59:43;;;;;;;0.43;0.10;;;;;;;4.19;80.60;101465.56;5048616;28;20171;-68
2024/02/14 05:02:09;;;;;;;1.88;0.20;;;;;;;4.25;80.75;101478.13;5050798;28;20111;-68
2024/02/14 05:04:37;;;;;;;0.45;0.20;;;;;;;4.21;80.69;101475.81;5051720;28;20029;-69
2024/02/14 05:07:03;;;;;;;1.30;0.20;;;;;;;4.18;80.40;101469.06;5051482;28;20045;-69
2024/02/14 05:09:29;;;;;;;1.85;0.10;;;;;;;4.19;80.72;101470.72;5052381;28;20033;-68
2024/02/14 05:11:54;;;;;;;0.30;0.10;;;;;;;4.15;81.39;101476.13;5048681;28;20040;-68
2024/02/14 05:14:20;;;;;;;3.22;0.20;;;;;;;4.21;79.87;101476.63;5051925;28;20032;-68
2024/02/14 05:16:46;;;;;;;1.23;0.20;;;;;;;4.31;79.91;101461.50;5050694;28;20036;-68
2024/02/14 05:19:11;;;;;;;2.47;0.20;;;;;;;4.37;79.85;101460.34;5048666;28;20041;-69
2024/02/14 05:21:37;;;;;;;0.28;0.10;;;;;;;4.39;78.51;101461.09;5048338;28;20490;-68
2024/02/14 05:24:04;;;;;;;0.98;0.10;;;;;;;4.36;78.23;101459.50;5051129;28;20120;-69
2024/02/14 05:26:29;;;;;;;0.60;0.10;;;;;;;4.33;79.31;101452.75;5046226;28;20037;-69
2024/02/14 05:28:55;;;;;;;0.47;0.10;;;;;;;4.33;78.67;101460.50;5052257;28;20436;-68
2024/02/14 05:31:20;;;;;;;1.13;0.28;;;;;;;4.29;79.47;101465.91;5049548;28;20044;-68
2024/02/14 05:33:46;;;;;;;0.35;0.10;;;;;;;4.23;79.33;101466.25;5050998;28;20091;-68
2024/02/14 05:36:11;;;;;;;1.15;0.17;;;;;;;4.19;79.82;101465.56;5052130;28;20041;-69
2024/02/14 05:38:37;;;;;;;0.47;0.10;;;;;;;4.16;79.78;101457.16;5066450;28;20040;-68
2024/02/14 05:41:02;;;;;;;4.78;0.10;;;;;;;4.16;80.91;101457.97;5053196;28;20471;-68
2024/02/14 05:43:27;;;;;;;0.35;0.10;;;;;;;4.18;80.33;101453.59;5048384;28;20041;-69
2024/02/14 05:45:53;;;;;;;0.32;0.10;;;;;;;4.23;79.34;101459.34;5051328;28;20039;-69
2024/02/14 05:48:19;;;;;;;1.40;0.13;;;;;;;4.20;80.33;101464.66;5051796;28;20115;-69
2024/02/14 05:50:45;;;;;;;0.50;0.20;;;;;;;4.12;79.38;101471.94;5052824;28;20055;-69
2024/02/14 05:53:12;;;;;;;2.92;0.30;;;;;;;4.06;80.97;101474.00;5049993;28;20489;-69
2024/02/14 05:55:38;;;;;;;2.40;0.45;;;;;;;4.04;80.82;101468.09;5048262;28;20148;-69
2024/02/14 05:58:03;;;;;;;2.17;0.38;;;;;;;4.03;81.03;101472.41;5055470;28;20484;-69
2024/02/14 06:00:30;;;;;;;1.13;0.17;;;;;;;4.06;79.67;101474.84;5050891;28;20041;-68
2024/02/14 06:02:56;;;;;;;0.40;0.10;;;;;;;4.06;80.93;101480.00;5045181;28;20075;-69
2024/02/14 06:05:21;;;;;;;1.65;0.40;;;;;;;4.05;80.57;101473.16;5050519;28;20038;-69
2024/02/14 06:07:47;;;;;;;0.57;0.10;;;;;;;4.15;80.04;101474.38;5051337;28;20028;-69
2024/02/14 06:10:12;;;;;;;2.58;0.20;;;;;;;4.17;79.90;101480.28;5053485;28;20043;-69
2024/02/14 06:12:40;;;;;;;1.98;0.10;;;;;;;4.14;80.76;101484.78;5051482;28;20048;-69
2024/02/14 06:15:07;;;;;;;0.90;0.10;;;;;;;4.13;79.56;101481.34;5050814;28;20049;-69
2024/02/14 06:17:32;;;;;;;2.85;0.40;;;;;;;4.09;80.37;101471.28;5053720;28;20032;-69
2024/02/14 06:19:58;;;;;;;1.05;0.10;;;;;;;4.12;79.34;101487.44;5051593;28;20033;-69
2024/02/14 06:22:24;;;;;;;4.50;0.35;;;;;;;4.15;80.31;101484.69;5050622;28;20069;-68
2024/02/14 06:24:49;;;;;;;1.05;0.20;;;;;;;4.27;79.24;101491.78;5049995;28;20032;-69
2024/02/14 06:27:15;;;;;;;3.20;0.20;;;;;;;4.36;78.17;101499.97;5049239;28;20053;-69
2024/02/14 06:29:44;;;;;;;2.05;0.28;;;;;;;4.34;78.23;101493.13;5049051;28;20051;-69
2024/02/14 06:32:12;;;;;;;1.02;0.17;;;;;;;4.34;78.37;101498.28;5046353;28;20366;-69
2024/02/14 06:34:38;;;;;;;0.75;0.10;;;;;;;4.34;78.19;101503.44;5045206;28;20079;-68
2024/02/14 06:37:04;;;;;;;0.95;0.15;;;;;;;4.37;79.32;101502.47;5050094;28;20064;-68
2024/02/14 06:39:30;;;;;;;5.10;0.20;;;;;;;4.38;77.92;101498.97;5046886;28;20035;-68
2024/02/14 06:41:56;;;;;;;2.85;0.20;;;;;;;4.44;79.62;101508.13;5050997;28;20588;-68
2024/02/14 06:44:22;;;;;;;1.95;0.10;;;;;;;4.46;79.01;101507.16;5051751;28;20035;-68
2024/02/14 06:46:48;;;;;;;1.90;0.10;;;;;;;4.50;79.21;101505.25;5047114;28;20024;-68
2024/02/14 06:49:13;;;;;;;0.57;0.10;;;;;;;4.52;78.84;101511.16;5048898;28;20140;-68
2024/02/14 06:51:39;;;;;;;4.88;0.35;;;;;;;4.52;78.32;101516.31;5052590;28;20043;-68
2024/02/14 06:54:04;;;;;;;1.08;0.10;;;;;;;4.52;77.71;101521.47;5049686;28;20017;-69
2024/02/14 06:56:30;;;;;;;0.82;0.30;;;;;;;4.52;79.95;101518.91;5047844;28;20035;-68
2024/02/14 06:58:59;;;;;;;2.08;0.20;;;;;;;4.51;78.76;101524.97;5045316;28;20486;-69
2024/02/14 07:01:26;;;;;;;0.65;0.30;;;;;;;4.53;79.19;101528.31;5044564;28;20033;-69
2024/02/14 07:03:53;;;;;;;2.00;0.20;;;;;;;4.58;78.96;101534.91;5040934;28;20071;-69
2024/02/14 07:06:18;;;;;;;0.95;0.20;;;;;;;4.65;77.40;101532.84;5046862;28;20456;-69
2024/02/14 07:08:44;;;;;;;2.00;0.20;;;;;;;4.71;79.89;101547.19;5047586;28;20040;-69
2024/02/14 07:11:11;;;;;;;0.90;0.20;;;;;;;4.72;79.25;101539.34;5048960;28;20116;-69
2024/02/14 07:13:36;;;;;;;0.38;0.10;;;;;;;4.77;78.39;101546.81;5048777;28;20032;-69
2024/02/14 07:16:02;;;;;;;1.45;0.20;;;;;;;4.81;79.28;101540.59;5050673;28;20075;-69
2024/02/14 07:18:27;;;;;;;3.42;0.15;;;;;;;4.77;77.51;101542.50;5049820;28;20044;-69
2024/02/14 07:20:53;;;;;;;1.20;0.30;;;;;;;4.82;77.37;101545.66;5046748;28;20040;-68
2024/02/14 07:23:20;;;;;;;5.43;0.25;;;;;;;4.84;78.68;101541.25;5048945;28;20033;-69
2024/02/14 07:25:45;;;;;;;1.05;0.20;;;;;;;4.91;78.88;101550.34;5047087;28;20377;-69
2024/02/14 07:28:11;;;;;;;1.38;0.20;;;;;;;4.92;76.59;101544.28;5047391;28;20025;-69
2024/02/14 07:30:36;;;;;;;0.45;0.10;;;;;;;4.94;78.18;101550.19;5044450;28;20382;-69
2024/02/14 07:33:02;;;;;;;0.77;0.13;;;;;;;5.00;78.04;101555.03;5050313;28;20029;-69
2024/02/14 07:35:27;;;;;;;2.78;0.20;;;;;;;5.09;79.34;101550.28;5046813;28;20049;-68
2024/02/14 07:37:53;;;;;;;0.60;0.20;;;;;;;5.13;78.93;101555.22;5047112;28;20112;-69
2024/02/14 07:40:20;;;;;;;1.33;0.20;;;;;;;5.15;78.57;101552.53;5048008;28;20021;-69
2024/02/14 07:42:45;;;;;;;2.92;0.22;;;;;;;5.24;79.84;101559.75;5052520;28;20037;-69
2024/02/14 07:45:11;;;;;;;2.83;0.28;;;;;;;5.30;78.40;101562.84;5045121;28;20029;-69
2024/02/14 07:47:36;;;;;;;3.03;0.40;;;;;;;5.41;78.77;101572.59;5046152;28;20497;-69
2024/02/14 07:50:02;;;;;;;0.82;0.30;;;;;;;5.51;78.23;101576.34;5052510;28;20037;-69
2024/02/14 07:52:28;;;;;;;1.48;0.20;;;;;;;5.59;77.61;101579.34;5042696;28;20128;-69
2024/02/14 07:54:54;;;;;;;2.60;0.40;;;;;;;5.71;77.09;101590.72;5050316;28;20025;-69
2024/02/14 07:57:22;;;;;;;0.73;0.10;;;;;;;5.80;77.55;101586.81;5041291;28;20029;-69
2024/02/14 07:59:47;;;;;;;2.00;0.20;;;;;;;5.86;76.15;101586.47;5047314;28;20040;-69
2024/02/14 08:02:13;;;;;;;0.68;0.28;;;;;;;5.96;76.11;101591.06;5046917;28;20024;-69
2024/02/14 08:04:39;;;;;;;1.33;0.20;;;;;;;6.05;75.54;101596.63;5047750;28;20086;-69
2024/02/14 08:07:04;;;;;;;2.63;0.17;;;;;;;6.16;76.15;101584.72;5049668;28;20025;-69
2024/02/14 08:09:30;;;;;;;0.60;0.20;;;;;;;6.26;73.07;101591.03;5046288;28;20029;-68
2024/02/14 08:11:55;;;;;;;0.22;0.10;;;;;;;6.39;74.22;101585.16;5048824;28;20170;-69
2024/02/14 08:14:21;;;;;;;3.58;0.20;;;;;;;6.39;75.91;101579.97;5043828;28;20410;-69
2024/02/14 08:16:46;;;;;;;0.40;0.13;;;;;;;6.37;75.14;101589.56;5036573;28;20025;-69
2024/02/14 08:19:11;;;;;;;1.08;0.10;;;;;;;6.33;74.76;101584.56;5043455;28;20043;-68
2024/02/14 08:21:37;;;;;;;0.85;0.20;;;;;;;6.36;75.32;101600.84;5048844;28;20039;-69
2024/02/14 08:24:03;;;;;;;1.02;0.10;;;;;;;6.40;75.09;101592.00;5050197;28;20060;-68
2024/02/14 08:26:28;;;;;;;1.65;0.20;;;;;;;6.43;74.18;101589.22;5044328;28;20486;-69
2024/02/14 08:28:54;;;;;;;0.57;0.20;;;;;;;6.43;75.35;101591.81;5046420;28;20115;-69
2024/02/14 08:31:20;;;;;;;2.17;0.20;;;;;;;6.39;74.53;101585.97;5049153;28;20503;-69
2024/02/14 08:33:45;;;;;;;2.72;0.40;;;;;;;6.37;74.30;101592.16;5046177;28;20469;-69
2024/02/14 08:36:11;;;;;;;5.03;0.28;;;;;;;6.32;74.49;101589.84;5046783;28;20045;-68
2024/02/14 08:38:36;;;;;;;5.97;0.63;;;;;;;6.33;76.29;101582.00;5044055;28;20090;-68
2024/02/14 08:41:03;;;;;;;1.27;0.20;;;;;;;6.40;75.24;101586.81;5044511;28;20025;-68
2024/02/14 08:43:29;;;;;;;6.20;0.20;;;;;;;6.48;74.86;101582.84;5048256;28;20502;-68
2024/02/14 08:45:55;;;;;;;1.02;0.20;;;;;;;6.61;75.39;101586.38;5046246;28;20090;-68
2024/02/14 08:48:21;;;;;;;1.13;0.30;;;;;;;6.76;74.87;101578.59;5047551;28;20044;-69
2024/02/14 08:50:46;;;;;;;0.60;0.30;;;;;;;6.91;73.96;101588.84;5047273;28;20041;-68
2024/02/14 08:53:13;;;;;;;1.63;0.60;;;;;;;6.93;74.86;101584.41;5039316;28;20116;-68
2024/02/14 08:55:40;;;;;;;1.05;0.25;;;;;;;7.02;72.86;101584.78;5042268;28;20454;-68
2024/02/14 08:58:06;;;;;;;2.60;0.30;;;;;;;7.13;74.00;101582.34;5032702;28;20025;-68
2024/02/14 09:00:35;;;;;;;1.38;0.10;;;;;;;7.25;74.10;101572.03;5043630;28;20051;-68
2024/02/14 09:03:00;;;;;;;0.70;0.15;;;;;;;7.29;72.34;101580.47;5049998;28;20021;-69
2024/02/14 09:05:27;;;;;;;1.42;0.15;;;;;;;7.29;73.38;101581.28;5045975;28;20127;-68
2024/02/14 09:07:53;;;;;;;1.15;0.17;;;;;;;7.37;75.15;101574.81;5038841;28;20037;-69
2024/02/14 09:10:19;;;;;;;0.77;0.20;;;;;;;7.47;74.30;101576.72;5038596;28;20113;-68
2024/02/14 09:12:44;;;;;;;1.60;0.10;;;;;;;7.60;73.73;101568.97;5042220;28;20036;-68
2024/02/14 09:15:11;;;;;;;0.80;0.20;;;;;;;7.65;74.92;101569.50;5043928;28;20132;-68
2024/02/14 09:17:38;;;;;;;1.10;0.40;;;;;;;7.88;75.03;101576.63;5047024;28;20063;-69
2024/02/14 09:20:06;;;;;;;1.15;0.30;;;;;;;7.99;73.31;101570.75;5044596;28;20029;-69
2024/02/14 09:22:33;;;;;;;3.72;0.20;;;;;;;8.12;73.58;101576.78;5041077;28;20067;-69
2024/02/14 09:24:59;;;;;;;2.70;0.20;;;;;;;8.13;75.72;101564.63;5040945;28;20021;-68
2024/02/14 09:27:24;;;;;;;0.50;0.13;;;;;;;8.20;74.89;101577.09;5043457;28;20096;-69
2024/02/14 09:29:50;;;;;;;3.17;0.22;;;;;;;8.30;72.73;101578.16;5040239;28;20052;-69
2024/02/14 09:32:15;;;;;;;0.82;0.20;;;;;;;8.46;71.33;101584.94;5041143;28;20021;-69
2024/02/14 09:34:41;;;;;;;1.15;0.20;;;;;;;8.55;72.20;101584.31;5037203;28;20054;-69
2024/02/14 09:37:07;;;;;;;0.52;0.20;;;;;;;8.56;72.19;101592.00;5044663;28;20029;-69
2024/02/14 09:39:36;;;;;;;1.60;0.20;;;;;;;8.81;72.27;101588.56;5045169;28;20087;-69
2024/02/14 09:42:08;;;;;;;5.70;0.20;;;;;;;8.81;72.11;101598.13;5047397;28;20389;-69
2024/02/14 09:44:35;;;;;;;1.33;0.20;;;;;;;8.75;72.31;101594.19;5042427;28;20033;-70
2024/02/14 09:47:01;;;;;;;1.95;0.40;;;;;;;8.74;72.66;101591.69;5043235;28;20367;-69
2024/02/14 09:49:28;;;;;;;5.60;0.40;;;;;;;8.81;73.48;101598.13;5046685;28;20136;-69
2024/02/14 09:51:56;;;;;;;4.90;0.28;;;;;;;8.86;72.80;101594.28;5042018;28;20020;-69
2024/02/14 09:54:23;;;;;;;1.13;0.20;;;;;;;9.04;70.02;101586.94;5049258;28;20021;-69
2024/02/14 09:56:53;;;;;;;0.52;0.20;;;;;;;9.24;71.01;101596.78;5051016;28;20033;-69
2024/02/14 09:59:22;;;;;;;6.03;0.20;;;;;;;9.30;73.99;101583.34;5050399;28;20401;-69
2024/02/14 10:01:50;;;;;;;0.43;0.20;;;;;;;9.34;75.00;101590.94;5047289;28;20068;-69
2024/02/14 10:04:17;;;;;;;1.10;0.20;;;;;;;9.34;72.86;101598.75;5051366;28;20068;-69
2024/02/14 10:06:43;;;;;;;0.68;0.20;;;;;;;9.46;75.73;101601.28;5052874;28;20347;-69
2024/02/14 10:09:10;;;;;;;1.02;0.30;;;;;;;9.47;77.83;101602.94;5044561;28;20047;-70
2024/02/14 10:11:36;;;;;;;1.05;0.30;;;;;;;9.46;71.11;101603.03;5052152;28;20030;-69
2024/02/14 10:14:07;;;;;;;0.95;0.30;;;;;;;9.57;72.85;101598.75;5058736;28;20474;-69
2024/02/14 10:16:35;;;;;;;0.68;0.20;;;;;;;9.47;79.04;101592.53;5050814;28;20055;-69
2024/02/14 10:19:00;;;;;;;1.13;0.20;;;;;;;9.34;82.00;101602.16;5054011;28;20040;-69
2024/02/14 10:21:28;;;;;;;0.63;0.20;;;;;;;9.45;82.17;101604.81;5046901;28;20095;-69
2024/02/14 10:23:55;;;;;;;0.40;0.15;;;;;;;9.44;83.88;101603.19;5048673;28;20037;-69
2024/02/14 10:26:21;;;;;;;0.80;0.20;;;;;;;9.44;84.43;101597.97;5051225;28;20039;-69
2024/02/14 10:28:47;;;;;;;1.33;0.30;;;;;;;9.43;81.94;101585.91;5045390;28;20032;-69
2024/02/14 10:31:12;;;;;;;0.82;0.20;;;;;;;9.55;79.15;101579.81;5049425;28;20036;-69
2024/02/14 10:33:38;;;;;;;1.10;0.25;;;;;;;9.78;79.71;101583.34;5049174;28;20430;-69
2024/02/14 10:36:07;;;;;;;0.93;0.20;;;;;;;9.89;82.93;101579.97;5047406;28;20517;-69
2024/02/14 10:38:34;;;;;;;0.50;0.20;;;;;;;9.79;83.34;101577.19;5050628;28;20039;-68
2024/02/14 10:41:00;;;;;;;0.98;0.22;;;;;;;9.88;84.50;101580.91;5048363;28;20052;-69
2024/02/14 10:43:26;;;;;;;1.30;0.20;;;;;;;10.00;84.90;101577.38;5049096;28;20044;-69
2024/02/14 10:45:54;;;;;;;1.55;0.50;;;;;;;10.10;84.73;101574.91;5050232;28;20039;-68
2024/02/14 10:48:25;;;;;;;0.60;0.20;;;;;;;10.10;84.10;101569.72;5051391;28;20086;-69
2024/02/14 10:50:57;;;;;;;1.63;0.20;;;;;;;10.20;87.09;101566.34;5049025;28;20382;-73
2024/02/14 10:53:25;;;;;;;5.60;0.30;;;;;;;10.22;87.35;101563.63;5051416;28;20096;-69
2024/02/14 10:55:51;;;;;;;0.63;0.20;;;;;;;10.12;87.61;101568.66;5048107;28;20053;-66
2024/02/14 10:58:17;;;;;;;3.38;0.38;;;;;;;10.02;88.73;101567.69;5042764;28;20075;-69
2024/02/14 11:00:45;;;;;;;4.50;0.40;;;;;;;9.94;89.88;101564.81;5049254;28;20053;-70
2024/02/14 11:03:11;;;;;;;0.93;0.32;;;;;;;9.94;90.36;101568.25;5050348;28;20029;-68
2024/02/14 11:05:49;;;;;;;1.35;0.50;;;;;;;9.96;88.97;101561.16;5046234;28;20451;-68
2024/02/14 11:08:21;;;;;;;4.13;0.30;;;;;;;10.04;90.04;101554.53;5053086;28;20075;-69
2024/02/14 11:10:56;;;;;;;1.08;0.38;;;;;;;9.98;86.85;101556.66;5049392;28;20056;-69
2024/02/14 11:13:30;;;;;;;4.28;0.32;;;;;;;9.99;90.00;101552.28;5045190;28;20482;-68
2024/02/14 11:15:57;;;;;;;1.67;0.43;;;;;;;9.98;90.10;101561.88;5046820;28;20028;-69
2024/02/14 11:18:29;;;;;;;2.10;0.47;;;;;;;10.05;91.13;101553.59;5049832;28;20433;-69
2024/02/14 11:20:57;;;;;;;1.60;0.47;;;;;;;10.11;91.21;101547.94;5050469;28;20075;-68
2024/02/14 11:23:23;;;;;;;2.28;0.47;;;;;;;10.12;90.37;101553.03;5052253;28;20055;-69
2024/02/14 11:25:49;;;;;;;3.60;1.20;;;;;;;10.21;90.02;101552.38;5046316;28;21770;-69
2024/02/14 11:28:23;;;;;;;2.45;0.52;;;;;;;10.37;89.82;101553.81;5050555;28;20039;-69